createdAt,value
2023-05-01T00:06:19.160Z,8.1
2023-05-01T00:16:21.020Z,8
2023-05-01T00:26:22.708Z,7.8
2023-05-01T00:46:27.024Z,7.7
2023-05-01T00:56:28.757Z,7.4
2023-05-01T03:17:00.918Z,6.6
2023-05-01T03:27:02.798Z,6.7
2023-05-01T03:37:04.835Z,6.8
2023-05-01T03:47:07.037Z,6.8
2023-05-01T03:57:09.399Z,6.7
2023-05-01T04:07:11.696Z,6.7
2023-05-01T04:17:13.536Z,6.7
2023-05-01T04:27:15.283Z,6.7
2023-05-01T04:37:17.828Z,6.9
2023-05-01T04:47:20.046Z,7.2
2023-05-01T05:07:24.345Z,7.3
2023-05-01T05:17:26.262Z,7.4
2023-05-01T05:27:28.679Z,7.6
2023-05-01T05:37:30.670Z,8
2023-05-01T05:47:33.303Z,8.5
2023-05-01T05:57:35.421Z,9.2
2023-05-01T06:07:37.715Z,9.7
2023-05-01T06:27:42.486Z,10.7
2023-05-01T06:37:44.858Z,10.9
2023-05-01T06:47:47.395Z,10.5
2023-05-01T06:57:49.726Z,11.2
2023-05-01T07:08:00.668Z,11.7
2023-05-01T07:17:53.559Z,11.7
2023-05-01T07:27:55.665Z,12.2
2023-05-01T07:37:57.450Z,12.4
2023-05-01T07:47:59.898Z,13.1
2023-05-01T07:58:01.766Z,13.4
2023-05-01T08:08:04.375Z,13.9
2023-05-01T08:18:06.718Z,13.8
2023-05-01T08:28:08.490Z,14
2023-05-01T08:38:10.666Z,15.3
2023-05-01T08:48:12.774Z,16.2
2023-05-01T08:58:15.406Z,16.5
2023-05-01T09:08:17.677Z,16.9
2023-05-01T09:18:20.023Z,17.7
2023-05-01T09:28:22.316Z,18.3
2023-05-01T09:38:24.182Z,19.4
2023-05-01T09:48:26.377Z,19.8
2023-05-01T09:58:28.696Z,19.3
2023-05-01T10:08:30.834Z,18.9
2023-05-01T10:18:33.468Z,19.7
2023-05-01T10:28:35.533Z,20.3
2023-05-01T10:38:37.536Z,20.7
2023-05-01T10:48:39.239Z,20.2
2023-05-01T10:58:41.764Z,20.6
2023-05-01T11:08:45.499Z,21.1
2023-05-01T11:18:46.806Z,20.6
2023-05-01T11:28:49.460Z,19.9
2023-05-01T11:38:51.228Z,19.6
2023-05-01T11:48:53.672Z,19.7
2023-05-01T11:58:55.862Z,20
2023-05-01T12:08:58.177Z,19.9
2023-05-01T12:19:00.208Z,19.8
2023-05-01T12:29:02.258Z,20.7
2023-05-01T12:39:04.889Z,20.1
2023-05-01T12:49:06.682Z,20.1
2023-05-01T13:19:12.639Z,20.2
2023-05-01T13:29:15.275Z,20.2
2023-05-01T13:39:18.447Z,20.2
2023-05-01T13:59:21.480Z,21.2
2023-05-01T14:29:36.600Z,19.8
2023-05-01T14:49:41.125Z,18.7
2023-05-01T15:09:45.934Z,18.6
2023-05-01T15:59:56.780Z,13.7
2023-05-01T16:30:03.514Z,13.6
2023-05-01T16:50:07.587Z,13.8
2023-05-01T17:10:11.457Z,14.2
2023-05-01T17:30:15.832Z,14.2
2023-05-01T17:50:20.708Z,14.2
2023-05-01T19:00:33.986Z,13.3
2023-05-01T19:10:37.252Z,13
2023-05-01T19:20:38.734Z,12.8
2023-05-01T19:30:41.119Z,12.7
2023-05-01T19:40:42.992Z,12.8
2023-05-01T19:50:45.656Z,13
2023-05-01T20:00:48.188Z,13.1
2023-05-01T20:10:50.074Z,13.2
2023-05-01T20:20:52.581Z,13.1
2023-05-01T20:30:54.590Z,13.1
2023-05-01T20:40:56.404Z,12.9
2023-05-01T20:50:58.997Z,12.8
2023-05-01T21:01:01.413Z,12.8
2023-05-01T21:11:03.369Z,12.7
2023-05-01T21:21:05.088Z,12.6
2023-05-01T21:41:09.055Z,12.4
2023-05-01T23:01:27.543Z,11.7
2023-05-01T23:11:29.962Z,11.6
2023-05-01T23:31:33.973Z,11.6
2023-05-01T23:51:38.650Z,11.3
